createdAt,value
2019-05-26T12:00:30.778Z,95756.08
2019-05-26T12:01:06.306Z,95752.25
2019-05-26T12:01:42.054Z,95751.73
2019-05-26T12:02:17.005Z,95755.21
2019-05-26T12:02:52.282Z,95750.31
2019-05-26T12:03:27.743Z,95747.83
2019-05-26T12:04:03.167Z,95747.56
2019-05-26T12:04:38.605Z,95742.06
2019-05-26T12:05:17.443Z,95747.00
2019-05-26T12:05:51.363Z,95744.27
2019-05-26T12:06:26.859Z,95743.72
2019-05-26T12:07:04.502Z,95738.28
2019-05-26T12:07:39.021Z,95738.50
2019-05-26T12:08:14.253Z,95741.63
2019-05-26T12:08:49.735Z,95735.26
2019-05-26T12:09:24.860Z,95737.37
2019-05-26T12:10:00.354Z,95733.18
2019-05-26T12:10:35.860Z,95730.98
2019-05-26T12:11:10.982Z,95731.73
2019-05-26T12:11:46.262Z,95733.48
2019-05-26T12:12:21.897Z,95723.31
2019-05-26T12:12:56.863Z,95728.83
2019-05-26T12:13:32.262Z,95724.47
2019-05-26T12:14:07.988Z,95725.83
2019-05-26T12:14:42.911Z,95726.52
2019-05-26T12:15:19.807Z,95716.30
2019-05-26T12:15:55.498Z,95723.50
2019-05-26T12:16:30.637Z,95718.13
2019-05-26T12:17:06.071Z,95720.48
2019-05-26T12:17:41.434Z,95719.30
2019-05-26T12:18:16.422Z,95715.52
2019-05-26T12:18:51.677Z,95719.61
2019-05-26T12:19:27.042Z,95717.01
2019-05-26T12:20:05.113Z,95713.40
2019-05-26T12:20:39.223Z,95715.50
2019-05-26T12:21:14.568Z,95716.83
2019-05-26T12:21:49.656Z,95717.44
2019-05-26T12:22:25.004Z,95709.53
2019-05-26T12:23:00.635Z,95714.23
2019-05-26T12:23:35.444Z,95711.59
2019-05-26T12:24:10.920Z,95720.70
2019-05-26T12:24:46.407Z,95720.59
2019-05-26T12:25:21.558Z,95713.16
2019-05-26T12:25:57.010Z,95705.53
2019-05-26T12:26:32.833Z,95713.81
2019-05-26T12:27:08.009Z,95709.64
2019-05-26T12:27:43.327Z,95708.34
2019-05-26T12:28:18.778Z,95706.62
2019-05-26T12:28:53.746Z,95711.16
2019-05-26T12:29:28.980Z,95710.46
2019-05-26T12:30:06.781Z,95707.78
2019-05-26T12:30:41.713Z,95709.09
2019-05-26T12:31:17.021Z,95706.48
2019-05-26T12:31:52.514Z,95705.47
2019-05-26T12:32:27.492Z,95704.45
2019-05-26T12:33:02.833Z,95701.36
2019-05-26T12:33:38.596Z,95702.83
2019-05-26T12:34:13.543Z,95706.34
2019-05-26T12:34:48.846Z,95708.91
2019-05-26T12:35:25.379Z,95707.02
2019-05-26T12:36:00.178Z,95706.10
2019-05-26T12:36:39.023Z,95703.61
2019-05-26T12:37:12.969Z,95706.22
2019-05-26T12:37:48.671Z,95709.11
2019-05-26T12:38:24.222Z,95701.42
2019-05-26T12:38:59.581Z,95712.03
2019-05-26T12:39:34.499Z,95700.86
2019-05-26T12:40:11.587Z,95707.36
2019-05-26T12:40:47.021Z,95703.87
2019-05-26T12:41:22.866Z,95703.79
2019-05-26T12:41:58.154Z,95700.92
2019-05-26T12:42:33.561Z,95698.59
2019-05-26T12:43:08.511Z,95699.42
2019-05-26T12:43:43.770Z,95700.05
2019-05-26T12:44:19.300Z,95699.80
2019-05-26T12:44:54.489Z,95701.04
2019-05-26T12:45:29.724Z,95695.53
2019-05-26T12:46:05.306Z,95694.81
2019-05-26T12:46:40.570Z,95696.60
2019-05-26T12:47:16.017Z,95691.36
2019-05-26T12:47:51.493Z,95686.91
2019-05-26T12:48:27.042Z,95690.48
2019-05-26T12:49:02.237Z,95687.20
2019-05-26T12:49:37.743Z,95683.93
2019-05-26T12:50:13.057Z,95685.61
2019-05-26T12:50:48.466Z,95685.61
2019-05-26T12:51:23.953Z,95684.42
2019-05-26T12:51:58.889Z,95684.85
2019-05-26T12:52:34.700Z,95678.15
2019-05-26T12:53:10.134Z,95679.38
2019-05-26T12:53:45.073Z,95678.96
2019-05-26T12:54:20.394Z,95676.25
2019-05-26T12:54:56.099Z,95684.16
2019-05-26T12:55:31.102Z,95682.16
2019-05-26T12:56:06.417Z,95682.79
2019-05-26T12:56:41.855Z,95679.18
2019-05-26T12:57:16.827Z,95682.31
2019-05-26T12:57:52.261Z,95678.73
2019-05-26T12:58:28.081Z,95686.00
2019-05-26T12:59:03.111Z,95675.60
2019-05-26T12:59:38.527Z,95674.03
2019-05-26T13:00:14.590Z,95679.55
2019-05-26T13:00:53.819Z,95678.84
2019-05-26T13:01:26.524Z,95675.69
2019-05-26T13:02:02.327Z,95676.06
2019-05-26T13:02:37.305Z,95677.81
2019-05-26T13:03:12.762Z,95680.00
2019-05-26T13:03:48.663Z,95674.02
2019-05-26T13:04:23.578Z,95671.10
2019-05-26T13:04:58.964Z,95669.02
2019-05-26T13:05:34.504Z,95674.06
2019-05-26T13:06:09.482Z,95675.75
2019-05-26T13:06:44.568Z,95672.53
2019-05-26T13:07:20.523Z,95666.77
2019-05-26T13:07:55.594Z,95674.38
2019-05-26T13:08:30.918Z,95674.48
2019-05-26T13:09:09.979Z,95675.58
2019-05-26T13:09:45.246Z,95672.88
2019-05-26T13:10:20.946Z,95675.80
2019-05-26T13:10:56.803Z,95674.89
2019-05-26T13:11:31.687Z,95675.20
2019-05-26T13:12:07.312Z,95670.80
2019-05-26T13:12:42.753Z,95676.09
2019-05-26T13:13:17.738Z,95670.67
2019-05-26T13:13:53.045Z,95666.53
2019-05-26T13:14:28.682Z,95653.64
2019-05-26T13:15:06.227Z,95665.09
2019-05-26T13:15:41.831Z,95664.68
2019-05-26T13:16:17.412Z,95679.76
2019-05-26T13:16:52.661Z,95675.23
2019-05-26T13:17:27.961Z,95676.73
2019-05-26T13:18:03.729Z,95672.95
2019-05-26T13:18:38.630Z,95672.14
2019-05-26T13:19:14.129Z,95675.30
2019-05-26T13:19:49.667Z,95672.98
2019-05-26T13:20:25.702Z,95672.88
2019-05-26T13:21:01.229Z,95672.52
2019-05-26T13:21:36.744Z,95669.92
2019-05-26T13:22:11.853Z,95666.30
2019-05-26T13:22:47.291Z,95669.70
2019-05-26T13:23:23.048Z,95666.51
2019-05-26T13:23:57.955Z,95670.41
2019-05-26T13:24:33.218Z,95669.77
2019-05-26T13:25:09.648Z,95666.95
2019-05-26T13:25:44.753Z,95669.80
2019-05-26T13:26:20.409Z,95671.06
2019-05-26T13:26:55.936Z,95672.03
2019-05-26T13:27:31.169Z,95670.34
2019-05-26T13:28:06.716Z,95672.00
2019-05-26T13:28:42.278Z,95671.94
2019-05-26T13:29:17.404Z,95667.99
2019-05-26T13:29:52.591Z,95671.77
2019-05-26T13:30:29.938Z,95673.38
2019-05-26T13:31:05.015Z,95667.30
2019-05-26T13:31:40.315Z,95667.39
2019-05-26T13:32:15.739Z,95669.17
2019-05-26T13:32:50.658Z,95669.66
2019-05-26T13:33:25.934Z,95670.30
2019-05-26T13:34:01.692Z,95668.86
2019-05-26T13:34:36.723Z,95663.13
2019-05-26T13:35:12.487Z,95666.75
2019-05-26T13:35:48.162Z,95670.85
2019-05-26T13:36:23.297Z,95668.94
2019-05-26T13:36:58.652Z,95664.80
2019-05-26T13:37:34.280Z,95662.48
2019-05-26T13:38:10.069Z,95659.72
2019-05-26T13:38:45.641Z,95663.13
2019-05-26T13:39:21.184Z,95663.70
2019-05-26T13:39:56.023Z,95662.52
2019-05-26T13:40:31.437Z,95662.09
2019-05-26T13:41:07.041Z,95661.39
2019-05-26T13:41:41.914Z,95662.84
2019-05-26T13:42:17.249Z,95661.61
2019-05-26T13:42:52.985Z,95663.98
2019-05-26T13:43:28.078Z,95650.75
2019-05-26T13:44:03.589Z,95653.59
2019-05-26T13:44:39.219Z,95659.59
2019-05-26T13:45:22.227Z,95653.73
2019-05-26T13:45:53.611Z,95664.30
2019-05-26T13:46:29.190Z,95656.45
2019-05-26T13:47:04.272Z,95655.36
2019-05-26T13:47:39.662Z,95650.46
2019-05-26T13:48:15.251Z,95647.01
2019-05-26T13:48:50.215Z,95652.61
2019-05-26T13:49:25.685Z,95649.69
2019-05-26T13:50:01.300Z,95646.71
2019-05-26T13:50:36.644Z,95650.94
2019-05-26T13:51:11.863Z,95650.94
2019-05-26T13:51:50.365Z,95653.05
2019-05-26T13:52:24.396Z,95659.17
2019-05-26T13:52:59.819Z,95655.32
2019-05-26T13:53:35.363Z,95653.38
2019-05-26T13:54:10.494Z,95657.48
2019-05-26T13:54:45.817Z,95653.50
2019-05-26T13:55:21.843Z,95655.11
2019-05-26T13:55:57.085Z,95659.88
2019-05-26T13:56:32.620Z,95653.44
2019-05-26T13:57:08.150Z,95654.20
2019-05-26T13:57:43.361Z,95656.85
2019-05-26T13:58:18.895Z,95661.00
2019-05-26T13:58:54.330Z,95656.52
2019-05-26T13:59:29.511Z,95662.14
2019-05-26T14:00:09.748Z,95655.83
2019-05-26T14:00:45.376Z,95663.73
2019-05-26T14:01:20.716Z,95661.19
2019-05-26T14:01:55.917Z,95662.86
2019-05-26T14:02:31.555Z,95662.45
2019-05-26T14:03:06.615Z,95662.08
2019-05-26T14:03:41.921Z,95667.77
2019-05-26T14:04:17.567Z,95664.54
2019-05-26T14:04:53.112Z,95669.35
2019-05-26T14:05:28.632Z,95655.90
2019-05-26T14:06:04.264Z,95658.75
2019-05-26T14:06:39.381Z,95657.39
2019-05-26T14:07:14.642Z,95652.98
2019-05-26T14:07:50.316Z,95654.44
2019-05-26T14:08:25.260Z,95657.77
2019-05-26T14:09:02.254Z,95652.45
2019-05-26T14:09:38.385Z,95655.09
2019-05-26T14:10:15.525Z,95652.61
2019-05-26T14:10:50.823Z,95655.46
2019-05-26T14:11:26.269Z,95654.44
2019-05-26T14:12:01.557Z,95654.11
2019-05-26T14:12:36.991Z,95654.23
2019-05-26T14:13:13.424Z,95657.26
2019-05-26T14:13:48.226Z,95657.26
2019-05-26T14:14:23.408Z,95652.95
2019-05-26T14:14:59.572Z,95661.66
2019-05-26T14:15:38.750Z,95656.32
2019-05-26T14:16:12.647Z,95656.02
2019-05-26T14:16:50.241Z,95658.38
2019-05-26T14:17:27.025Z,95662.08
2019-05-26T14:18:03.721Z,95658.50
2019-05-26T14:18:39.289Z,95660.89
2019-05-26T14:19:14.954Z,95660.95
2019-05-26T14:19:52.064Z,95661.77
2019-05-26T14:20:37.066Z,95659.28
2019-05-26T14:21:12.074Z,95652.73
2019-05-26T14:21:47.376Z,95660.20
2019-05-26T14:22:22.904Z,95653.03
2019-05-26T14:22:57.695Z,95659.05
2019-05-26T14:23:32.929Z,95653.72
2019-05-26T14:24:08.632Z,95658.53
2019-05-26T14:24:53.359Z,95652.05
2019-05-26T14:25:20.699Z,95653.61
2019-05-26T14:25:56.334Z,95653.00
2019-05-26T14:26:31.443Z,95652.95
2019-05-26T14:27:07.165Z,95651.38
2019-05-26T14:27:42.785Z,95652.73
2019-05-26T14:28:17.766Z,95649.16
2019-05-26T14:28:53.266Z,95646.56
2019-05-26T14:29:28.944Z,95650.74
2019-05-26T14:30:05.781Z,95645.86
2019-05-26T14:30:41.163Z,95645.27
2019-05-26T14:31:16.434Z,95652.24
2019-05-26T14:31:52.914Z,95647.70
2019-05-26T14:32:28.492Z,95645.42
2019-05-26T14:33:04.099Z,95646.50
2019-05-26T14:33:39.231Z,95647.26
2019-05-26T14:34:14.331Z,95652.07
2019-05-26T14:34:49.982Z,95641.69
2019-05-26T14:35:25.168Z,95644.75
2019-05-26T14:36:00.677Z,95642.95
2019-05-26T14:36:36.039Z,95640.39
2019-05-26T14:37:11.058Z,95638.56
2019-05-26T14:37:46.509Z,95636.28
2019-05-26T14:38:22.049Z,95644.53
2019-05-26T14:38:57.140Z,95643.27
2019-05-26T14:39:32.373Z,95643.19
2019-05-26T14:40:10.656Z,95641.89
2019-05-26T14:40:45.539Z,95634.39
2019-05-26T14:41:20.827Z,95640.20
2019-05-26T14:41:56.559Z,95645.60
2019-05-26T14:42:31.506Z,95637.09
2019-05-26T14:43:07.880Z,95642.55
2019-05-26T14:43:43.497Z,95635.82
2019-05-26T14:44:18.352Z,95639.30
2019-05-26T14:44:53.725Z,95642.73
2019-05-26T14:45:29.232Z,95638.70
2019-05-26T14:46:04.299Z,95636.63
2019-05-26T14:46:39.538Z,95636.81
2019-05-26T14:47:15.042Z,95640.73
2019-05-26T14:47:49.970Z,95639.54
2019-05-26T14:48:25.422Z,95639.23
2019-05-26T14:49:01.119Z,95635.78
2019-05-26T14:49:36.153Z,95640.61
2019-05-26T14:50:12.321Z,95636.58
2019-05-26T14:50:47.785Z,95637.98
2019-05-26T14:51:22.766Z,95637.67
2019-05-26T14:51:58.400Z,95633.72
2019-05-26T14:52:34.178Z,95634.54
2019-05-26T14:53:09.165Z,95632.44
2019-05-26T14:53:44.623Z,95632.64
2019-05-26T14:54:20.143Z,95633.19
2019-05-26T14:54:55.467Z,95631.00
2019-05-26T14:55:31.054Z,95633.39
2019-05-26T14:56:06.649Z,95635.70
2019-05-26T14:56:41.693Z,95632.42
2019-05-26T14:57:17.138Z,95636.55
2019-05-26T14:57:52.696Z,95631.13
2019-05-26T14:58:27.631Z,95634.45
2019-05-26T14:59:02.907Z,95628.95
2019-05-26T14:59:38.739Z,95632.14
2019-05-26T15:00:15.809Z,95630.24
2019-05-26T15:00:50.968Z,95628.44
2019-05-26T15:01:26.814Z,95634.15
2019-05-26T15:02:01.738Z,95626.34
2019-05-26T15:02:37.204Z,95631.06
2019-05-26T15:03:12.679Z,95629.84
2019-05-26T15:03:47.610Z,95630.95
2019-05-26T15:04:22.813Z,95635.14
2019-05-26T15:04:58.578Z,95629.83
2019-05-26T15:05:33.532Z,95631.35
2019-05-26T15:06:09.120Z,95632.33
2019-05-26T15:06:44.829Z,95631.92
2019-05-26T15:07:19.783Z,95631.33
2019-05-26T15:07:55.161Z,95630.71
2019-05-26T15:08:30.682Z,95632.13
2019-05-26T15:09:22.365Z,95632.62
2019-05-26T15:09:46.220Z,95630.73
2019-05-26T15:10:23.229Z,95627.92
2019-05-26T15:10:58.549Z,95628.73
2019-05-26T15:11:33.810Z,95624.03
2019-05-26T15:12:09.504Z,95624.12
2019-05-26T15:12:44.356Z,95622.64
2019-05-26T15:13:19.971Z,95629.33
2019-05-26T15:13:55.472Z,95627.14
2019-05-26T15:14:30.360Z,95620.45
2019-05-26T15:15:07.663Z,95622.64
2019-05-26T15:15:43.501Z,95626.15
2019-05-26T15:16:18.339Z,95631.55
2019-05-26T15:16:53.752Z,95626.15
2019-05-26T15:17:29.404Z,95625.44
2019-05-26T15:18:04.260Z,95628.44
2019-05-26T15:18:39.641Z,95630.95
2019-05-26T15:19:15.373Z,95625.04
2019-05-26T15:19:50.383Z,95626.23
2019-05-26T15:20:25.866Z,95625.13
2019-05-26T15:21:01.603Z,95623.95
2019-05-26T15:21:36.630Z,95622.33
2019-05-26T15:22:11.950Z,95626.63
2019-05-26T15:22:47.614Z,95625.33
2019-05-26T15:23:22.658Z,95621.41
2019-05-26T15:23:58.066Z,95624.63
2019-05-26T15:24:33.602Z,95616.70
2019-05-26T15:25:09.315Z,95620.73
2019-05-26T15:25:45.057Z,95607.59
2019-05-26T15:26:20.588Z,95613.41
2019-05-26T15:26:55.729Z,95621.79
2019-05-26T15:27:30.994Z,95614.89
2019-05-26T15:28:06.720Z,95624.13
2019-05-26T15:28:41.847Z,95620.72
2019-05-26T15:29:17.160Z,95619.10
2019-05-26T15:29:52.895Z,95619.41
2019-05-26T15:30:30.803Z,95621.92
2019-05-26T15:31:06.025Z,95619.30
2019-05-26T15:31:42.595Z,95618.22
2019-05-26T15:32:17.557Z,95616.71
2019-05-26T15:32:53.155Z,95623.84
2019-05-26T15:33:28.664Z,95618.83
2019-05-26T15:34:03.713Z,95619.14
2019-05-26T15:34:39.038Z,95616.63
2019-05-26T15:35:14.817Z,95619.64
2019-05-26T15:35:49.848Z,95619.92
2019-05-26T15:36:25.149Z,95620.84
2019-05-26T15:37:00.904Z,95615.12
2019-05-26T15:37:35.705Z,95623.50
2019-05-26T15:38:11.119Z,95614.64
2019-05-26T15:38:46.642Z,95619.64
2019-05-26T15:39:21.738Z,95614.41
2019-05-26T15:39:57.441Z,95619.60
2019-05-26T15:40:32.972Z,95611.76
2019-05-26T15:41:07.846Z,95618.00
2019-05-26T15:41:43.153Z,95612.66
2019-05-26T15:42:18.902Z,95621.56
2019-05-26T15:42:53.749Z,95616.44
2019-05-26T15:43:29.281Z,95619.50
2019-05-26T15:44:04.787Z,95621.71
2019-05-26T15:44:39.752Z,95620.59
2019-05-26T15:45:15.351Z,95621.33
2019-05-26T15:45:50.811Z,95616.45
2019-05-26T15:46:26.014Z,95619.68
2019-05-26T15:47:01.782Z,95612.34
2019-05-26T15:47:37.441Z,95616.55
2019-05-26T15:48:12.814Z,95615.81
2019-05-26T15:48:48.083Z,95618.14
2019-05-26T15:49:23.686Z,95612.55
2019-05-26T15:49:58.555Z,95612.41
2019-05-26T15:50:34.063Z,95614.23
2019-05-26T15:51:09.666Z,95612.52
2019-05-26T15:51:44.600Z,95613.71
2019-05-26T15:52:19.933Z,95609.81
2019-05-26T15:52:55.450Z,95614.62
2019-05-26T15:53:30.780Z,95605.15
2019-05-26T15:54:06.193Z,95606.16
2019-05-26T15:54:41.712Z,95612.70
2019-05-26T15:55:17.119Z,95605.25
2019-05-26T15:55:52.599Z,95609.53
2019-05-26T15:56:28.306Z,95606.98
2019-05-26T15:57:03.434Z,95610.52
2019-05-26T15:57:38.860Z,95609.04
2019-05-26T15:58:14.651Z,95603.04
2019-05-26T15:58:49.643Z,95606.94
2019-05-26T15:59:25.138Z,95608.48
2019-05-26T16:00:01.158Z,95609.88
2019-05-26T16:00:36.197Z,95609.22
2019-05-26T16:01:11.645Z,95609.78
2019-05-26T16:01:48.608Z,95605.58
2019-05-26T16:02:23.466Z,95609.43
2019-05-26T16:02:58.774Z,95608.27
2019-05-26T16:03:34.550Z,95605.92
2019-05-26T16:04:09.467Z,95607.00
2019-05-26T16:04:45.611Z,95604.30
2019-05-26T16:05:21.510Z,95598.00
2019-05-26T16:05:56.500Z,95602.21
2019-05-26T16:06:32.095Z,95605.94
2019-05-26T16:07:07.620Z,95605.63
2019-05-26T16:07:42.715Z,95609.26
2019-05-26T16:08:18.237Z,95605.19
2019-05-26T16:08:53.835Z,95604.94
2019-05-26T16:09:28.849Z,95603.95
2019-05-26T16:10:05.549Z,95606.93
2019-05-26T16:10:41.101Z,95604.88
2019-05-26T16:11:16.190Z,95601.84
2019-05-26T16:11:51.489Z,95603.35
2019-05-26T16:12:27.060Z,95603.53
2019-05-26T16:13:02.060Z,95596.02
2019-05-26T16:13:37.343Z,95599.36
2019-05-26T16:14:12.970Z,95604.17
2019-05-26T16:14:47.897Z,95601.75
2019-05-26T16:15:23.551Z,95605.91
2019-05-26T16:15:58.955Z,95604.68
2019-05-26T16:16:41.367Z,95603.82
2019-05-26T16:17:10.967Z,95608.75
2019-05-26T16:17:46.492Z,95599.92
2019-05-26T16:18:21.610Z,95601.51
2019-05-26T16:18:57.157Z,95602.52
2019-05-26T16:19:32.731Z,95603.39
2019-05-26T16:20:09.954Z,95605.38
2019-05-26T16:20:45.341Z,95602.89
2019-05-26T16:21:28.067Z,95606.13
2019-05-26T16:21:57.460Z,95603.65
2019-05-26T16:22:32.787Z,95602.23
2019-05-26T16:23:09.063Z,95604.20
2019-05-26T16:23:44.361Z,95596.84
2019-05-26T16:24:19.714Z,95603.19
2019-05-26T16:24:55.397Z,95601.66
2019-05-26T16:25:30.285Z,95598.46
2019-05-26T16:26:05.782Z,95601.83
2019-05-26T16:26:41.469Z,95594.86
2019-05-26T16:27:19.631Z,95590.97
2019-05-26T16:27:53.626Z,95592.64
2019-05-26T16:28:29.239Z,95594.63
2019-05-26T16:29:05.012Z,95593.19
2019-05-26T16:29:40.054Z,95593.34
2019-05-26T16:30:15.947Z,95596.23
2019-05-26T16:30:50.951Z,95589.11
2019-05-26T16:31:26.295Z,95592.25
2019-05-26T16:32:01.803Z,95594.11
2019-05-26T16:32:36.934Z,95593.48
2019-05-26T16:33:12.537Z,95592.88
2019-05-26T16:33:48.154Z,95595.27
2019-05-26T16:34:23.226Z,95589.74
2019-05-26T16:34:58.703Z,95588.77
2019-05-26T16:35:34.261Z,95589.61
2019-05-26T16:36:09.531Z,95593.03
2019-05-26T16:36:45.191Z,95588.15
2019-05-26T16:37:20.735Z,95587.45
2019-05-26T16:37:55.764Z,95583.48
2019-05-26T16:38:31.373Z,95592.47
2019-05-26T16:39:08.692Z,95583.02
2019-05-26T16:39:43.894Z,95582.95
2019-05-26T16:40:19.284Z,95581.34
2019-05-26T16:40:54.648Z,95582.75
2019-05-26T16:41:29.524Z,95583.25
2019-05-26T16:42:05.087Z,95582.37
2019-05-26T16:42:40.681Z,95583.68
2019-05-26T16:43:15.800Z,95575.63
2019-05-26T16:43:51.283Z,95569.73
2019-05-26T16:44:26.820Z,95580.06
2019-05-26T16:45:02.075Z,95580.16
2019-05-26T16:45:37.561Z,95578.11
2019-05-26T16:46:13.217Z,95574.81
2019-05-26T16:46:55.946Z,95577.93
2019-05-26T16:47:25.066Z,95579.63
2019-05-26T16:48:00.586Z,95578.75
2019-05-26T16:48:35.723Z,95582.36
2019-05-26T16:49:11.276Z,95581.23
2019-05-26T16:49:46.946Z,95577.70
2019-05-26T16:50:22.066Z,95574.89
2019-05-26T16:50:57.461Z,95570.44
2019-05-26T16:51:33.284Z,95575.63
2019-05-26T16:52:08.402Z,95571.97
2019-05-26T16:52:43.837Z,95570.84
2019-05-26T16:53:19.430Z,95570.16
2019-05-26T16:53:54.322Z,95572.12
2019-05-26T16:54:29.415Z,95572.50
2019-05-26T16:55:05.945Z,95569.97
2019-05-26T16:55:41.080Z,95576.05
2019-05-26T16:56:16.182Z,95571.38
2019-05-26T16:56:51.249Z,95571.34
2019-05-26T16:57:26.305Z,95574.28
2019-05-26T16:58:06.525Z,95570.00
2019-05-26T16:58:40.703Z,95571.29
2019-05-26T16:59:15.676Z,95570.20
2019-05-26T16:59:51.096Z,95572.87
2019-05-26T17:00:26.866Z,95581.37
2019-05-26T17:01:01.874Z,95581.27
2019-05-26T17:01:37.378Z,95582.24
2019-05-26T17:02:13.048Z,95581.03
2019-05-26T17:02:48.564Z,95574.77
2019-05-26T17:03:23.913Z,95576.01
2019-05-26T17:03:59.735Z,95568.22
2019-05-26T17:04:34.868Z,95574.55
2019-05-26T17:05:10.253Z,95566.03
2019-05-26T17:05:45.542Z,95571.77
2019-05-26T17:06:20.720Z,95568.16
2019-05-26T17:06:56.099Z,95569.08
2019-05-26T17:07:31.888Z,95568.95
2019-05-26T17:08:06.898Z,95563.50
2019-05-26T17:08:42.498Z,95567.70
2019-05-26T17:09:18.240Z,95566.52
2019-05-26T17:09:53.575Z,95566.25
2019-05-26T17:10:29.474Z,95560.14
2019-05-26T17:11:05.330Z,95563.39
2019-05-26T17:11:40.614Z,95565.17
2019-05-26T17:12:16.233Z,95563.53
2019-05-26T17:12:51.923Z,95555.70
2019-05-26T17:13:27.097Z,95560.08
2019-05-26T17:14:02.543Z,95560.94
2019-05-26T17:14:38.580Z,95560.62
2019-05-26T17:15:13.897Z,95563.86
2019-05-26T17:15:49.189Z,95558.35
2019-05-26T17:16:25.401Z,95558.35
2019-05-26T17:17:14.131Z,95551.17
2019-05-26T17:17:38.138Z,95553.16
2019-05-26T17:18:13.863Z,95563.22
2019-05-26T17:18:48.877Z,95560.45
2019-05-26T17:19:24.418Z,95555.27
2019-05-26T17:20:00.726Z,95553.53
2019-05-26T17:20:35.952Z,95559.73
2019-05-26T17:21:11.715Z,95567.13
2019-05-26T17:21:47.764Z,95563.47
2019-05-26T17:22:22.814Z,95557.25
2019-05-26T17:22:58.300Z,95562.92
2019-05-26T17:23:34.250Z,95558.98
2019-05-26T17:24:09.470Z,95553.81
2019-05-26T17:24:45.354Z,95553.45
2019-05-26T17:25:21.234Z,95560.70
2019-05-26T17:25:56.568Z,95560.77
2019-05-26T17:26:32.482Z,95555.11
2019-05-26T17:27:08.102Z,95555.94
2019-05-26T17:27:43.250Z,95556.59
2019-05-26T17:28:18.817Z,95560.78
2019-05-26T17:28:54.593Z,95555.52
2019-05-26T17:29:29.733Z,95553.24
2019-05-26T17:30:08.084Z,95552.63
2019-05-26T17:30:43.728Z,95551.75
2019-05-26T17:31:18.872Z,95552.86
2019-05-26T17:31:54.146Z,95558.41
2019-05-26T17:32:29.786Z,95547.34
2019-05-26T17:33:04.923Z,95554.45
2019-05-26T17:33:40.590Z,95550.81
2019-05-26T17:34:16.360Z,95553.77
2019-05-26T17:34:51.648Z,95551.39
2019-05-26T17:35:27.143Z,95548.63
2019-05-26T17:36:02.396Z,95549.83
2019-05-26T17:36:37.563Z,95549.72
2019-05-26T17:37:12.967Z,95546.53
2019-05-26T17:37:48.589Z,95547.16
2019-05-26T17:38:23.716Z,95549.83
2019-05-26T17:38:59.260Z,95540.33
2019-05-26T17:39:34.885Z,95543.19
2019-05-26T17:40:10.883Z,95544.98
2019-05-26T17:40:46.438Z,95544.92
2019-05-26T17:41:22.323Z,95540.22
2019-05-26T17:41:57.636Z,95546.39
2019-05-26T17:42:33.235Z,95543.36
2019-05-26T17:43:08.759Z,95542.98
2019-05-26T17:43:43.812Z,95542.42
2019-05-26T17:44:19.372Z,95545.25
2019-05-26T17:44:54.981Z,95543.95
2019-05-26T17:45:30.021Z,95541.79
2019-05-26T17:46:05.412Z,95542.05
2019-05-26T17:46:41.346Z,95535.07
2019-05-26T17:47:29.216Z,95535.14
2019-05-26T17:47:53.572Z,95537.85
2019-05-26T17:48:29.194Z,95542.68
2019-05-26T17:49:04.542Z,95538.45
2019-05-26T17:49:40.078Z,95542.64
2019-05-26T17:50:16.739Z,95544.75
2019-05-26T17:50:53.137Z,95540.49
2019-05-26T17:51:28.942Z,95545.14
2019-05-26T17:52:04.670Z,95538.44
2019-05-26T17:52:39.787Z,95540.67
2019-05-26T17:53:15.310Z,95546.87
2019-05-26T17:53:51.132Z,95538.91
2019-05-26T17:54:26.075Z,95540.13
2019-05-26T17:55:01.459Z,95541.63
2019-05-26T17:55:37.019Z,95537.16
2019-05-26T17:56:12.353Z,95530.70
2019-05-26T17:56:47.775Z,95531.02
2019-05-26T17:57:23.578Z,95538.27
2019-05-26T17:57:58.766Z,95532.16
2019-05-26T17:58:34.152Z,95533.22
2019-05-26T17:59:10.149Z,95533.96
2019-05-26T17:59:45.129Z,95535.86
2019-05-26T18:00:21.041Z,95538.82
2019-05-26T18:00:56.831Z,95537.16
2019-05-26T18:01:31.861Z,95534.89
2019-05-26T18:02:07.946Z,95534.70
2019-05-26T18:02:45.161Z,95529.20
2019-05-26T18:03:20.507Z,95532.59
2019-05-26T18:03:55.873Z,95532.05
2019-05-26T18:04:31.400Z,95534.09
2019-05-26T18:05:08.068Z,95527.05
2019-05-26T18:05:43.306Z,95528.95
2019-05-26T18:06:19.066Z,95527.70
2019-05-26T18:06:54.011Z,95532.64
2019-05-26T18:07:29.470Z,95530.50
2019-05-26T18:08:05.389Z,95531.03
2019-05-26T18:08:40.534Z,95527.47
2019-05-26T18:09:16.013Z,95529.69
2019-05-26T18:09:52.049Z,95529.56
2019-05-26T18:10:27.351Z,95529.03
2019-05-26T18:11:02.774Z,95529.27
2019-05-26T18:11:38.224Z,95525.17
2019-05-26T18:12:13.348Z,95528.52
2019-05-26T18:12:48.829Z,95522.58
2019-05-26T18:13:24.404Z,95524.83
2019-05-26T18:13:59.408Z,95522.89
2019-05-26T18:14:34.777Z,95517.91
2019-05-26T18:15:11.792Z,95521.92
2019-05-26T18:15:46.768Z,95526.13
2019-05-26T18:16:22.084Z,95523.53
2019-05-26T18:16:57.561Z,95521.55
2019-05-26T18:17:45.890Z,95522.16
2019-05-26T18:18:10.115Z,95515.03
2019-05-26T18:18:45.669Z,95513.78
2019-05-26T18:19:20.622Z,95515.56
2019-05-26T18:19:56.017Z,95517.06
2019-05-26T18:20:31.658Z,95518.69
2019-05-26T18:21:06.708Z,95520.43
2019-05-26T18:21:42.018Z,95516.15
2019-05-26T18:22:17.600Z,95516.64
2019-05-26T18:22:52.540Z,95517.32
2019-05-26T18:23:27.951Z,95516.71
2019-05-26T18:24:03.615Z,95516.71
2019-05-26T18:24:38.592Z,95517.93
2019-05-26T18:25:14.173Z,95516.52
2019-05-26T18:25:49.726Z,95512.51
2019-05-26T18:26:24.753Z,95516.63
2019-05-26T18:27:00.223Z,95518.14
2019-05-26T18:27:35.783Z,95516.52
2019-05-26T18:28:10.800Z,95518.50
2019-05-26T18:28:46.169Z,95520.41
2019-05-26T18:29:21.694Z,95516.48
2019-05-26T18:29:56.698Z,95514.86
2019-05-26T18:30:31.889Z,95515.39
2019-05-26T18:31:07.533Z,95517.20
2019-05-26T18:31:42.628Z,95513.32
2019-05-26T18:32:18.623Z,95520.53
2019-05-26T18:32:54.246Z,95514.17
2019-05-26T18:33:29.425Z,95518.79
2019-05-26T18:34:04.917Z,95512.68
2019-05-26T18:34:40.406Z,95517.61
2019-05-26T18:35:15.836Z,95512.11
2019-05-26T18:35:51.440Z,95517.24
2019-05-26T18:36:26.886Z,95514.41
2019-05-26T18:37:01.750Z,95518.58
2019-05-26T18:37:37.073Z,95513.77
2019-05-26T18:38:12.876Z,95518.33
2019-05-26T18:38:47.916Z,95519.30
2019-05-26T18:39:23.194Z,95518.33
2019-05-26T18:39:58.834Z,95521.23
2019-05-26T18:40:33.865Z,95518.20
2019-05-26T18:41:43.633Z,95514.51
2019-05-26T18:42:18.597Z,95518.91
2019-05-26T18:42:54.098Z,95519.59
2019-05-26T18:43:29.524Z,95513.25
2019-05-26T18:44:04.695Z,95508.39
2019-05-26T18:44:40.099Z,95514.73
2019-05-26T18:45:15.803Z,95512.55
2019-05-26T18:45:51.050Z,95506.79
2019-05-26T18:46:26.667Z,95509.13
2019-05-26T18:47:02.131Z,95515.58
2019-05-26T18:47:37.388Z,95511.52
2019-05-26T18:48:12.904Z,95511.35
2019-05-26T18:48:48.365Z,95512.58
2019-05-26T18:49:23.141Z,95515.03
2019-05-26T18:49:59.407Z,95507.77
2019-05-26T18:50:34.921Z,95513.74
2019-05-26T18:51:15.016Z,95516.03
2019-05-26T18:51:50.454Z,95511.92
2019-05-26T18:52:25.896Z,95516.31
2019-05-26T18:53:00.851Z,95512.04
2019-05-26T18:53:36.508Z,95507.46
2019-05-26T18:54:11.834Z,95518.22
2019-05-26T18:54:47.456Z,95519.28
2019-05-26T18:55:23.243Z,95519.47
2019-05-26T18:55:58.925Z,95514.95
2019-05-26T18:56:33.981Z,95513.06
2019-05-26T18:57:09.545Z,95515.64
2019-05-26T18:57:44.991Z,95514.44
2019-05-26T18:58:19.927Z,95520.87